createdAt,value
2022-09-10T00:00:23.682Z,962.21
2022-09-10T00:00:42.310Z,962.21
2022-09-10T00:01:13.354Z,962.41
2022-09-10T00:01:44.290Z,962.41
2022-09-10T00:02:15.318Z,962.31
2022-09-10T00:02:46.326Z,962.31
2022-09-10T00:03:18.261Z,962.31
2022-09-10T00:03:48.265Z,962.31
2022-09-10T00:04:19.255Z,962.31
2022-09-10T00:04:50.253Z,962.31
2022-09-10T00:05:21.246Z,962.41
2022-09-10T00:05:52.279Z,962.41
2022-09-10T00:06:23.283Z,962.31
2022-09-10T00:06:54.299Z,962.31
2022-09-10T00:07:25.289Z,962.21
2022-09-10T00:07:56.260Z,962.21
2022-09-10T00:08:28.264Z,962.21
2022-09-10T00:08:58.262Z,962.21
2022-09-10T00:09:29.320Z,962.14
2022-09-10T00:10:00.328Z,962.14
2022-09-10T00:10:31.316Z,962.41
2022-09-10T00:11:02.420Z,962.21
2022-09-10T00:11:33.267Z,962.21
2022-09-10T00:12:04.343Z,962.41
2022-09-10T00:12:35.235Z,962.41
2022-09-10T00:13:06.254Z,962.21
2022-09-10T00:13:38.261Z,962.21
2022-09-10T00:14:08.257Z,962.31
2022-09-10T00:14:39.283Z,962.31
2022-09-10T00:15:22.596Z,962.21
2022-09-10T00:15:41.408Z,962.21
2022-09-10T00:16:12.360Z,962.21
2022-09-10T00:16:43.317Z,962.21
2022-09-10T00:17:14.279Z,962.21
2022-09-10T00:17:45.330Z,962.21
2022-09-10T00:18:16.247Z,962.31
2022-09-10T00:18:48.286Z,962.31
2022-09-10T00:19:18.331Z,962.14
2022-09-10T00:19:49.249Z,962.14
2022-09-10T00:20:20.305Z,962.21
2022-09-10T00:20:51.314Z,962.21
2022-09-10T00:21:22.281Z,962.21
2022-09-10T00:21:53.276Z,962.21
2022-09-10T00:22:24.266Z,962.14
2022-09-10T00:22:55.260Z,962.14
2022-09-10T00:23:26.273Z,962.21
2022-09-10T00:23:58.265Z,962.21
2022-09-10T00:24:28.297Z,962.14
2022-09-10T00:24:59.255Z,962.14
2022-09-10T00:25:30.312Z,962.21
2022-09-10T00:26:01.444Z,962.21
2022-09-10T00:26:32.311Z,962.04
2022-09-10T00:27:03.328Z,962.21
2022-09-10T00:27:34.292Z,962.21
2022-09-10T00:28:05.297Z,962.14
2022-09-10T00:28:36.243Z,962.14
2022-09-10T00:29:08.318Z,962.14
2022-09-10T00:29:38.272Z,962.14
2022-09-10T00:30:21.828Z,962.14
2022-09-10T00:30:40.292Z,962.14
2022-09-10T00:31:11.410Z,962.04
2022-09-10T00:31:42.306Z,962.04
2022-09-10T00:32:13.309Z,962.21
2022-09-10T00:32:44.256Z,962.21
2022-09-10T00:33:15.316Z,961.94
2022-09-10T00:33:46.252Z,961.94
2022-09-10T00:34:18.281Z,962.04
2022-09-10T00:34:48.258Z,962.04
2022-09-10T00:35:19.336Z,962.14
2022-09-10T00:35:50.307Z,962.14
2022-09-10T00:36:21.232Z,962.21
2022-09-10T00:36:52.271Z,962.21
2022-09-10T00:37:23.244Z,962.04
2022-09-10T00:37:54.315Z,962.04
2022-09-10T00:38:25.252Z,962.21
2022-09-10T00:38:56.238Z,962.21
2022-09-10T00:39:28.317Z,961.94
2022-09-10T00:39:58.326Z,961.94
2022-09-10T00:40:29.287Z,962.14
2022-09-10T00:41:00.334Z,962.14
2022-09-10T00:41:31.310Z,962.21
2022-09-10T00:42:02.364Z,962.14
2022-09-10T00:42:33.292Z,962.14
2022-09-10T00:43:04.241Z,962.04
2022-09-10T00:43:35.274Z,962.04
2022-09-10T00:44:06.265Z,962.04
2022-09-10T00:44:38.267Z,962.04
2022-09-10T00:45:20.677Z,961.94
2022-09-10T00:45:39.367Z,961.94
2022-09-10T00:46:10.278Z,962.21
2022-09-10T00:46:41.289Z,962.21
2022-09-10T00:47:12.349Z,962.21
2022-09-10T00:47:43.250Z,962.21
2022-09-10T00:48:14.312Z,962.14
2022-09-10T00:48:45.358Z,962.14
2022-09-10T00:49:16.242Z,962.14
2022-09-10T00:49:48.271Z,962.14
2022-09-10T00:50:18.280Z,962.21
2022-09-10T00:50:49.253Z,962.21
2022-09-10T00:51:20.253Z,962.14
2022-09-10T00:51:51.249Z,962.14
2022-09-10T00:52:22.374Z,962.21
2022-09-10T00:52:53.303Z,962.21
2022-09-10T00:53:24.324Z,962.04
2022-09-10T00:53:55.240Z,962.04
2022-09-10T00:54:26.346Z,962.04
2022-09-10T00:54:58.252Z,962.04
2022-09-10T00:55:28.268Z,962.04
2022-09-10T00:55:59.362Z,962.04
2022-09-10T00:56:30.303Z,962.14
2022-09-10T00:57:01.351Z,962.14
2022-09-10T00:57:32.282Z,961.94
2022-09-10T00:58:03.273Z,961.83
2022-09-10T00:58:34.322Z,961.83
2022-09-10T00:59:05.285Z,962.04
2022-09-10T00:59:36.233Z,962.04
2022-09-10T01:00:21.422Z,962.04
2022-09-10T01:00:39.075Z,962.04
2022-09-10T01:01:13.863Z,962.14
2022-09-10T01:01:47.595Z,962.14
2022-09-10T01:02:11.495Z,961.94
2022-09-10T01:02:43.393Z,961.94
2022-09-10T01:03:13.334Z,962.04
2022-09-10T01:03:55.782Z,962.04
2022-09-10T01:04:15.378Z,962.14
2022-09-10T01:04:46.258Z,962.14
2022-09-10T01:05:18.312Z,961.94
2022-09-10T01:05:48.429Z,961.94
2022-09-10T01:06:19.290Z,962.14
2022-09-10T01:06:50.316Z,962.14
2022-09-10T01:07:21.328Z,961.94
2022-09-10T01:07:52.393Z,961.94
2022-09-10T01:08:24.023Z,962.14
2022-09-10T01:08:54.271Z,962.14
2022-09-10T01:09:25.273Z,962.21
2022-09-10T01:09:56.277Z,962.21
2022-09-10T01:10:28.357Z,962.14
2022-09-10T01:10:58.494Z,962.14
2022-09-10T01:11:29.248Z,962.04
2022-09-10T01:12:00.379Z,962.04
2022-09-10T01:12:34.383Z,962.21
2022-09-10T01:13:02.394Z,962.04
2022-09-10T01:13:33.282Z,962.04
2022-09-10T01:14:04.355Z,962.04
2022-09-10T01:14:35.337Z,962.04
2022-09-10T01:15:18.663Z,962.14
2022-09-10T01:15:38.267Z,962.14
2022-09-10T01:16:08.380Z,962.14
2022-09-10T01:16:39.220Z,962.14
2022-09-10T01:17:10.507Z,962.14
2022-09-10T01:17:41.244Z,962.14
2022-09-10T01:18:12.275Z,961.94
2022-09-10T01:18:43.248Z,961.94
2022-09-10T01:19:14.260Z,962.21
2022-09-10T01:19:45.245Z,962.21
2022-09-10T01:20:16.369Z,962.04
2022-09-10T01:20:48.234Z,962.04
2022-09-10T01:21:18.245Z,962.21
2022-09-10T01:21:49.308Z,962.21
2022-09-10T01:22:20.241Z,962.04
2022-09-10T01:22:51.242Z,962.04
2022-09-10T01:23:22.360Z,962.04
2022-09-10T01:23:53.305Z,962.04
2022-09-10T01:24:24.256Z,961.94
2022-09-10T01:24:55.225Z,961.94
2022-09-10T01:25:26.221Z,961.94
2022-09-10T01:25:58.312Z,961.94
2022-09-10T01:26:28.252Z,961.83
2022-09-10T01:26:59.248Z,961.83
2022-09-10T01:27:30.307Z,962.04
2022-09-10T01:28:01.258Z,962.04
2022-09-10T01:28:32.266Z,961.94
2022-09-10T01:29:03.244Z,961.94
2022-09-10T01:29:34.307Z,961.94
2022-09-10T01:30:17.875Z,961.94
2022-09-10T01:30:36.278Z,961.94
2022-09-10T01:31:08.295Z,961.94
2022-09-10T01:31:38.334Z,961.94
2022-09-10T01:32:09.245Z,961.94
2022-09-10T01:32:40.284Z,961.94
2022-09-10T01:33:11.242Z,961.94
2022-09-10T01:33:42.236Z,961.94
2022-09-10T01:34:13.247Z,961.83
2022-09-10T01:34:44.287Z,961.83
2022-09-10T01:35:15.252Z,962.04
2022-09-10T01:35:46.227Z,962.04
2022-09-10T01:36:18.290Z,962.14
2022-09-10T01:36:48.321Z,962.14
2022-09-10T01:37:19.244Z,962.21
2022-09-10T01:37:50.225Z,962.21
2022-09-10T01:38:21.236Z,962.04
2022-09-10T01:38:52.293Z,962.04
2022-09-10T01:39:23.266Z,962.31
2022-09-10T01:39:54.348Z,962.31
2022-09-10T01:40:25.270Z,962.14
2022-09-10T01:40:56.264Z,962.14
2022-09-10T01:41:28.249Z,961.73
2022-09-10T01:41:58.238Z,961.73
2022-09-10T01:42:29.313Z,962.14
2022-09-10T01:43:00.295Z,962.14
2022-09-10T01:43:31.263Z,962.14
2022-09-10T01:44:02.316Z,962.21
2022-09-10T01:44:33.240Z,962.21
2022-09-10T01:45:16.613Z,962.14
2022-09-10T01:45:35.265Z,962.14
2022-09-10T01:46:06.299Z,961.94
2022-09-10T01:46:38.248Z,961.94
2022-09-10T01:47:08.283Z,962.04
2022-09-10T01:47:39.274Z,962.04
2022-09-10T01:48:10.253Z,962.14
2022-09-10T01:48:41.218Z,962.14
2022-09-10T01:49:12.233Z,962.14
2022-09-10T01:49:43.218Z,962.14
2022-09-10T01:50:14.264Z,961.94
2022-09-10T01:50:45.270Z,961.94
2022-09-10T01:51:16.282Z,962.14
2022-09-10T01:51:48.272Z,962.14
2022-09-10T01:52:18.234Z,962.14
2022-09-10T01:52:49.241Z,962.14
2022-09-10T01:53:20.220Z,962.04
2022-09-10T01:53:51.313Z,962.04
2022-09-10T01:54:22.263Z,961.94
2022-09-10T01:54:53.318Z,961.94
2022-09-10T01:55:24.312Z,962.14
2022-09-10T01:55:55.234Z,962.14
2022-09-10T01:56:26.360Z,962.04
2022-09-10T01:56:58.219Z,962.04
2022-09-10T01:57:28.264Z,962.14
2022-09-10T01:57:59.264Z,962.14
2022-09-10T01:58:30.339Z,961.94
2022-09-10T01:59:01.263Z,961.94
2022-09-10T01:59:32.269Z,961.83
2022-09-10T02:00:15.683Z,962.04
2022-09-10T02:00:34.330Z,962.04
2022-09-10T02:01:05.375Z,961.94
2022-09-10T02:01:36.271Z,961.94
2022-09-10T02:02:08.363Z,961.94
2022-09-10T02:02:38.330Z,961.94
2022-09-10T02:03:09.269Z,961.94
2022-09-10T02:03:40.231Z,961.94
2022-09-10T02:04:11.232Z,962.04
2022-09-10T02:04:42.210Z,962.04
2022-09-10T02:05:13.229Z,961.94
2022-09-10T02:05:44.292Z,961.94
2022-09-10T02:06:15.225Z,961.94
2022-09-10T02:06:46.241Z,961.94
2022-09-10T02:07:18.250Z,962.04
2022-09-10T02:07:48.225Z,962.04
2022-09-10T02:08:19.287Z,961.83
2022-09-10T02:08:50.225Z,961.83
2022-09-10T02:09:21.249Z,961.94
2022-09-10T02:09:52.274Z,961.94
2022-09-10T02:10:23.338Z,962.04
2022-09-10T02:10:54.222Z,962.04
2022-09-10T02:11:25.222Z,961.94
2022-09-10T02:11:56.236Z,961.94
2022-09-10T02:12:28.229Z,961.73
2022-09-10T02:12:58.242Z,961.73
2022-09-10T02:13:29.238Z,961.94
2022-09-10T02:14:00.318Z,961.94
2022-09-10T02:14:31.232Z,962.04
2022-09-10T02:15:14.780Z,961.94
2022-09-10T02:15:33.284Z,961.94
2022-09-10T02:16:04.325Z,961.83
2022-09-10T02:16:35.326Z,961.83
2022-09-10T02:17:06.266Z,962.04
2022-09-10T02:17:38.297Z,962.04
2022-09-10T02:18:13.260Z,961.94
2022-09-10T02:18:39.365Z,961.94
2022-09-10T02:19:10.291Z,961.94
2022-09-10T02:19:41.238Z,961.94
2022-09-10T02:20:12.259Z,961.83
2022-09-10T02:20:43.222Z,961.83
2022-09-10T02:21:14.252Z,961.94
2022-09-10T02:21:45.251Z,961.94
2022-09-10T02:22:16.256Z,961.94
2022-09-10T02:22:48.232Z,961.94
2022-09-10T02:23:18.228Z,961.83
2022-09-10T02:23:49.263Z,961.83
2022-09-10T02:24:20.209Z,961.94
2022-09-10T02:24:51.434Z,961.94
2022-09-10T02:25:22.421Z,961.83
2022-09-10T02:25:53.264Z,961.83
2022-09-10T02:26:24.216Z,961.83
2022-09-10T02:26:55.274Z,961.83
2022-09-10T02:27:26.209Z,961.94
2022-09-10T02:27:58.191Z,961.94
2022-09-10T02:28:28.268Z,962.04
2022-09-10T02:28:59.238Z,962.04
2022-09-10T02:29:30.226Z,961.94
2022-09-10T02:30:13.618Z,961.94
2022-09-10T02:30:32.262Z,962.04
2022-09-10T02:31:03.275Z,961.94
2022-09-10T02:31:34.314Z,961.94
2022-09-10T02:32:05.236Z,961.73
2022-09-10T02:32:36.214Z,961.73
2022-09-10T02:33:08.243Z,961.63
2022-09-10T02:33:38.300Z,961.63
2022-09-10T02:34:09.251Z,961.83
2022-09-10T02:34:40.231Z,961.83
2022-09-10T02:35:11.246Z,961.94
2022-09-10T02:35:42.266Z,961.94
2022-09-10T02:36:13.223Z,961.73
2022-09-10T02:36:44.365Z,961.73
2022-09-10T02:37:15.282Z,961.94
2022-09-10T02:37:46.203Z,961.94
2022-09-10T02:38:18.223Z,961.94
2022-09-10T02:38:48.293Z,961.94
2022-09-10T02:39:19.220Z,962.04
2022-09-10T02:39:50.243Z,962.04
2022-09-10T02:40:21.228Z,961.83
2022-09-10T02:40:52.259Z,961.83
2022-09-10T02:41:23.302Z,961.94
2022-09-10T02:41:54.253Z,961.94
2022-09-10T02:42:25.210Z,962.04
2022-09-10T02:42:56.223Z,962.04
2022-09-10T02:43:28.257Z,961.83
2022-09-10T02:43:58.232Z,961.83
2022-09-10T02:44:29.234Z,961.94
2022-09-10T02:45:12.613Z,961.94
2022-09-10T02:45:31.269Z,961.73
2022-09-10T02:46:02.415Z,961.73
2022-09-10T02:46:33.229Z,961.73
2022-09-10T02:47:04.315Z,961.53
2022-09-10T02:47:35.319Z,961.53
2022-09-10T02:48:06.236Z,962.04
2022-09-10T02:48:38.305Z,962.04
2022-09-10T02:49:08.293Z,961.94
2022-09-10T02:49:39.214Z,961.94
2022-09-10T02:50:10.282Z,961.94
2022-09-10T02:50:41.218Z,961.94
2022-09-10T02:51:12.227Z,961.53
2022-09-10T02:51:43.222Z,961.53
2022-09-10T02:52:14.210Z,961.83
2022-09-10T02:52:45.230Z,961.83
2022-09-10T02:53:16.218Z,961.73
2022-09-10T02:53:48.223Z,961.73
2022-09-10T02:54:18.215Z,961.73
2022-09-10T02:54:49.279Z,961.73
2022-09-10T02:55:20.214Z,961.83
2022-09-10T02:55:51.234Z,961.83
2022-09-10T02:56:22.272Z,961.73
2022-09-10T02:56:53.238Z,961.73
2022-09-10T02:57:24.245Z,961.53
2022-09-10T02:57:55.243Z,961.53
2022-09-10T02:58:26.267Z,961.83
2022-09-10T02:58:58.262Z,961.83
2022-09-10T02:59:28.232Z,961.63
2022-09-10T02:59:59.221Z,961.63
2022-09-10T03:00:43.667Z,961.53
2022-09-10T03:01:01.390Z,961.53
2022-09-10T03:01:32.293Z,961.63
2022-09-10T03:02:03.349Z,961.73
2022-09-10T03:02:34.280Z,961.73
2022-09-10T03:03:05.248Z,961.73
2022-09-10T03:03:36.198Z,961.73
2022-09-10T03:04:08.273Z,961.73
2022-09-10T03:04:38.257Z,961.73
2022-09-10T03:05:09.296Z,961.73
2022-09-10T03:05:40.258Z,961.73
2022-09-10T03:06:11.222Z,961.83
2022-09-10T03:06:42.210Z,961.83
2022-09-10T03:07:13.209Z,961.53
2022-09-10T03:07:44.224Z,961.53
2022-09-10T03:08:15.296Z,961.83
2022-09-10T03:08:46.216Z,961.83
2022-09-10T03:09:18.218Z,961.73
2022-09-10T03:09:48.290Z,961.73
2022-09-10T03:10:19.238Z,961.83
2022-09-10T03:10:50.219Z,961.83
2022-09-10T03:11:21.214Z,961.73
2022-09-10T03:11:52.215Z,961.73
2022-09-10T03:12:23.229Z,961.63
2022-09-10T03:12:54.221Z,961.63
2022-09-10T03:13:25.272Z,961.73
2022-09-10T03:13:56.235Z,961.73
2022-09-10T03:14:28.200Z,961.73
2022-09-10T03:14:58.274Z,961.73
2022-09-10T03:15:41.575Z,961.94
2022-09-10T03:16:00.259Z,961.94
2022-09-10T03:16:31.368Z,961.73
2022-09-10T03:17:02.435Z,961.53
2022-09-10T03:17:33.218Z,961.53
2022-09-10T03:18:04.240Z,961.63
2022-09-10T03:18:35.490Z,961.63
2022-09-10T03:19:06.253Z,961.63
2022-09-10T03:19:38.270Z,961.63
2022-09-10T03:20:08.398Z,961.73
2022-09-10T03:20:39.247Z,961.73
2022-09-10T03:21:10.273Z,961.63
2022-09-10T03:21:41.209Z,961.63
2022-09-10T03:22:12.219Z,961.83
2022-09-10T03:22:43.202Z,961.83
2022-09-10T03:23:14.267Z,961.53
2022-09-10T03:23:45.279Z,961.53
2022-09-10T03:24:16.206Z,961.83
2022-09-10T03:24:48.205Z,961.83
2022-09-10T03:25:18.206Z,961.73
2022-09-10T03:25:50.009Z,961.73
2022-09-10T03:26:20.204Z,961.73
2022-09-10T03:26:51.196Z,961.73
2022-09-10T03:27:22.339Z,961.73
2022-09-10T03:27:53.259Z,961.73
2022-09-10T03:28:24.228Z,961.53
2022-09-10T03:28:55.197Z,961.53
2022-09-10T03:29:26.196Z,961.43
2022-09-10T03:29:58.209Z,961.43
2022-09-10T03:30:40.606Z,961.63
2022-09-10T03:30:59.216Z,961.63
2022-09-10T03:31:30.230Z,961.63
2022-09-10T03:32:01.298Z,961.63
2022-09-10T03:32:32.205Z,961.83
2022-09-10T03:33:03.422Z,961.63
2022-09-10T03:33:34.215Z,961.63
2022-09-10T03:34:05.218Z,961.83
2022-09-10T03:34:36.208Z,961.83
2022-09-10T03:35:08.339Z,961.63
2022-09-10T03:35:38.220Z,961.63
2022-09-10T03:36:09.211Z,961.83
2022-09-10T03:36:40.234Z,961.83
2022-09-10T03:37:11.296Z,961.73
2022-09-10T03:37:42.251Z,961.73
2022-09-10T03:38:13.186Z,961.63
2022-09-10T03:38:44.205Z,961.63
2022-09-10T03:39:15.210Z,961.83
2022-09-10T03:39:46.370Z,961.83
2022-09-10T03:40:18.257Z,961.73
2022-09-10T03:40:48.201Z,961.73
2022-09-10T03:41:19.224Z,961.73
2022-09-10T03:41:50.249Z,961.73
2022-09-10T03:42:21.209Z,961.63
2022-09-10T03:42:52.215Z,961.63
2022-09-10T03:43:23.211Z,961.63
2022-09-10T03:43:54.210Z,961.63
2022-09-10T03:44:25.240Z,961.73
2022-09-10T03:44:56.218Z,961.73
2022-09-10T03:45:40.646Z,961.83
2022-09-10T03:45:58.271Z,961.83
2022-09-10T03:46:29.223Z,961.63
2022-09-10T03:47:00.227Z,961.63
2022-09-10T03:47:31.294Z,961.83
2022-09-10T03:48:02.304Z,961.73
2022-09-10T03:48:33.215Z,961.73
2022-09-10T03:49:04.257Z,961.63
2022-09-10T03:49:35.196Z,961.63
2022-09-10T03:50:06.272Z,961.53
2022-09-10T03:50:38.268Z,961.53
2022-09-10T03:51:08.242Z,961.63
2022-09-10T03:51:39.213Z,961.63
2022-09-10T03:52:10.202Z,961.94
2022-09-10T03:52:41.217Z,961.94
2022-09-10T03:53:12.236Z,961.53
2022-09-10T03:53:43.184Z,961.53
2022-09-10T03:54:14.198Z,961.83
2022-09-10T03:54:45.272Z,961.83
2022-09-10T03:55:16.192Z,961.53
2022-09-10T03:55:48.179Z,961.53
2022-09-10T03:56:18.200Z,961.73
2022-09-10T03:56:49.267Z,961.73
2022-09-10T03:57:20.409Z,961.43
2022-09-10T03:57:51.198Z,961.43
2022-09-10T03:58:22.192Z,961.73
2022-09-10T03:58:53.225Z,961.73
2022-09-10T03:59:24.182Z,961.73
2022-09-10T03:59:55.210Z,961.73
2022-09-10T04:00:38.788Z,961.53
2022-09-10T04:00:58.222Z,961.53
2022-09-10T04:01:28.244Z,961.43
2022-09-10T04:01:59.251Z,961.43
2022-09-10T04:02:30.275Z,961.83
2022-09-10T04:03:01.228Z,961.83
2022-09-10T04:03:32.203Z,961.73
2022-09-10T04:04:03.270Z,961.73
2022-09-10T04:04:34.215Z,961.73
2022-09-10T04:05:05.287Z,961.43
2022-09-10T04:05:36.215Z,961.43
2022-09-10T04:06:08.260Z,961.63
2022-09-10T04:06:38.233Z,961.63
2022-09-10T04:07:09.286Z,961.73
2022-09-10T04:07:40.247Z,961.73
2022-09-10T04:08:11.255Z,961.73
2022-09-10T04:08:42.207Z,961.73
2022-09-10T04:09:13.220Z,961.63
2022-09-10T04:09:44.260Z,961.63
2022-09-10T04:10:15.221Z,961.63
2022-09-10T04:10:46.212Z,961.63
2022-09-10T04:11:18.205Z,961.83
2022-09-10T04:11:48.245Z,961.83
2022-09-10T04:12:19.229Z,961.63
2022-09-10T04:12:50.226Z,961.63
2022-09-10T04:13:21.189Z,961.53
2022-09-10T04:13:52.289Z,961.53
2022-09-10T04:14:23.209Z,961.73
2022-09-10T04:14:54.221Z,961.73
2022-09-10T04:15:37.581Z,961.73
2022-09-10T04:15:56.245Z,961.73
2022-09-10T04:16:28.273Z,961.63
2022-09-10T04:16:58.184Z,961.63
2022-09-10T04:17:29.387Z,961.63
2022-09-10T04:18:00.169Z,961.63
2022-09-10T04:18:31.460Z,961.63
2022-09-10T04:19:02.353Z,961.73
2022-09-10T04:19:33.205Z,961.73
2022-09-10T04:20:04.304Z,961.53
2022-09-10T04:20:35.303Z,961.53
2022-09-10T04:21:06.229Z,961.83
2022-09-10T04:21:38.198Z,961.83
2022-09-10T04:22:08.285Z,961.83
2022-09-10T04:22:39.259Z,961.83
2022-09-10T04:23:10.216Z,961.53
2022-09-10T04:23:41.206Z,961.53
2022-09-10T04:24:12.234Z,961.83
2022-09-10T04:24:43.222Z,961.83
2022-09-10T04:25:14.228Z,961.83
2022-09-10T04:25:45.209Z,961.83
2022-09-10T04:26:16.268Z,961.94
2022-09-10T04:26:48.192Z,961.94
2022-09-10T04:27:18.186Z,961.73
2022-09-10T04:27:49.320Z,961.73
2022-09-10T04:28:20.247Z,961.73
2022-09-10T04:28:51.187Z,961.73
2022-09-10T04:29:22.225Z,961.94
2022-09-10T04:29:53.185Z,961.94
2022-09-10T04:30:36.617Z,961.83
2022-09-10T04:30:55.188Z,961.83
2022-09-10T04:31:26.252Z,961.94
2022-09-10T04:31:58.271Z,961.94
2022-09-10T04:32:28.185Z,961.63
2022-09-10T04:32:59.292Z,961.63
2022-09-10T04:33:30.176Z,961.63
2022-09-10T04:34:01.329Z,961.63
2022-09-10T04:34:32.290Z,961.63
2022-09-10T04:35:03.259Z,961.73
2022-09-10T04:35:34.198Z,961.73
2022-09-10T04:36:05.265Z,961.83
2022-09-10T04:36:36.175Z,961.83
2022-09-10T04:37:08.269Z,961.83
2022-09-10T04:37:38.275Z,961.83
2022-09-10T04:38:09.245Z,961.83
2022-09-10T04:38:40.314Z,961.83
2022-09-10T04:39:11.204Z,961.94
2022-09-10T04:39:42.265Z,961.94
2022-09-10T04:40:13.270Z,961.83
2022-09-10T04:40:44.201Z,961.83
2022-09-10T04:41:15.323Z,961.94
2022-09-10T04:41:46.234Z,961.94
2022-09-10T04:42:18.189Z,961.73
2022-09-10T04:42:48.201Z,961.73
2022-09-10T04:43:19.247Z,961.83
2022-09-10T04:43:50.197Z,961.83
2022-09-10T04:44:21.187Z,961.83
2022-09-10T04:44:52.246Z,961.83
2022-09-10T04:45:35.538Z,961.94
2022-09-10T04:45:54.280Z,961.94
2022-09-10T04:46:25.259Z,961.83
2022-09-10T04:46:56.251Z,961.83
2022-09-10T04:47:28.256Z,961.94
2022-09-10T04:47:58.241Z,961.94
2022-09-10T04:48:29.272Z,961.94
2022-09-10T04:49:00.341Z,961.94
2022-09-10T04:49:31.351Z,961.83
2022-09-10T04:50:02.386Z,962.04
2022-09-10T04:50:33.286Z,962.04
2022-09-10T04:51:16.087Z,961.94
2022-09-10T04:51:35.271Z,961.94
2022-09-10T04:52:06.273Z,962.04
2022-09-10T04:52:38.264Z,962.04
2022-09-10T04:53:08.255Z,961.94
2022-09-10T04:53:39.280Z,961.94
2022-09-10T04:54:10.263Z,962.14
2022-09-10T04:54:41.310Z,962.14
2022-09-10T04:55:12.203Z,962.14
2022-09-10T04:55:43.247Z,962.14
2022-09-10T04:56:14.265Z,961.83
2022-09-10T04:56:45.260Z,961.83
2022-09-10T04:57:16.259Z,961.94
2022-09-10T04:57:48.347Z,961.94
2022-09-10T04:58:18.237Z,962.04
2022-09-10T04:58:49.231Z,962.04
2022-09-10T04:59:20.243Z,961.94
2022-09-10T04:59:51.218Z,961.94
2022-09-10T05:00:34.736Z,961.94
2022-09-10T05:00:53.295Z,961.94
2022-09-10T05:01:24.378Z,962.21
2022-09-10T05:01:55.302Z,962.21
2022-09-10T05:02:26.317Z,962.04
2022-09-10T05:02:58.298Z,962.04
2022-09-10T05:03:28.476Z,961.94
2022-09-10T05:03:59.296Z,961.94
2022-09-10T05:04:30.285Z,962.14
2022-09-10T05:05:01.339Z,962.14
2022-09-10T05:05:32.262Z,962.14
2022-09-10T05:06:03.300Z,962.04
2022-09-10T05:06:34.298Z,962.04
2022-09-10T05:07:05.343Z,962.04
2022-09-10T05:07:36.265Z,962.04
2022-09-10T05:08:08.245Z,962.04
2022-09-10T05:08:38.495Z,962.04
2022-09-10T05:09:09.300Z,961.94
2022-09-10T05:09:40.323Z,961.94
2022-09-10T05:10:12.324Z,962.14
2022-09-10T05:10:42.275Z,962.14
2022-09-10T05:11:13.222Z,962.14
2022-09-10T05:11:44.366Z,962.14
2022-09-10T05:12:15.382Z,962.04
2022-09-10T05:12:46.367Z,962.04
2022-09-10T05:13:18.355Z,962.14
2022-09-10T05:13:48.391Z,962.14
2022-09-10T05:14:19.532Z,961.94
2022-09-10T05:14:50.392Z,961.94
2022-09-10T05:15:33.732Z,962.04
2022-09-10T05:15:52.406Z,962.04
2022-09-10T05:16:23.421Z,962.04
2022-09-10T05:16:54.459Z,962.04
2022-09-10T05:17:25.419Z,962.04
2022-09-10T05:17:56.470Z,962.04
2022-09-10T05:18:28.352Z,962.04
2022-09-10T05:18:58.334Z,962.04
2022-09-10T05:19:29.358Z,962.14
2022-09-10T05:20:00.340Z,962.14
2022-09-10T05:20:31.386Z,962.31
2022-09-10T05:21:02.444Z,961.94
2022-09-10T05:21:33.350Z,961.94
2022-09-10T05:22:04.329Z,962.04
2022-09-10T05:22:40.094Z,962.04
2022-09-10T05:23:06.315Z,962.14
2022-09-10T05:23:38.244Z,962.14
2022-09-10T05:24:08.273Z,962.14
2022-09-10T05:24:39.251Z,962.14
2022-09-10T05:25:10.274Z,962.31
2022-09-10T05:25:41.262Z,962.31
2022-09-10T05:26:12.398Z,962.21
2022-09-10T05:26:43.348Z,962.21
2022-09-10T05:27:14.252Z,962.21
2022-09-10T05:27:45.246Z,962.21
2022-09-10T05:28:16.321Z,962.21
2022-09-10T05:28:48.235Z,962.21
2022-09-10T05:29:18.208Z,962.04
2022-09-10T05:29:49.402Z,962.04
2022-09-10T05:30:32.868Z,962.31
2022-09-10T05:30:51.720Z,962.31
2022-09-10T05:31:22.341Z,962.14
2022-09-10T05:31:53.335Z,962.14
2022-09-10T05:32:24.268Z,962.21
2022-09-10T05:32:55.235Z,962.21
2022-09-10T05:33:26.253Z,962.14
2022-09-10T05:33:58.241Z,962.14
2022-09-10T05:34:28.282Z,962.14
2022-09-10T05:34:59.369Z,962.14
2022-09-10T05:35:30.466Z,962.21
2022-09-10T05:36:01.425Z,962.21
2022-09-10T05:36:32.336Z,962.04
2022-09-10T05:37:03.402Z,962.21
2022-09-10T05:37:34.355Z,962.21
2022-09-10T05:38:05.463Z,962.21
2022-09-10T05:38:39.851Z,962.21
2022-09-10T05:39:08.385Z,962.14
2022-09-10T05:39:38.361Z,962.14
2022-09-10T05:40:09.598Z,962.14
2022-09-10T05:40:40.378Z,962.14
2022-09-10T05:41:11.379Z,962.14
2022-09-10T05:41:42.375Z,962.14
2022-09-10T05:42:13.407Z,962.14
2022-09-10T05:42:44.365Z,962.14
2022-09-10T05:43:15.340Z,962.31
2022-09-10T05:43:46.419Z,962.31
2022-09-10T05:44:18.345Z,962.04
2022-09-10T05:44:48.447Z,962.04
2022-09-10T05:45:31.664Z,962.31
2022-09-10T05:45:50.316Z,962.31
2022-09-10T05:46:21.222Z,962.21
2022-09-10T05:46:52.258Z,962.21
2022-09-10T05:47:23.233Z,962.21
2022-09-10T05:47:54.244Z,962.21
2022-09-10T05:48:25.359Z,962.41
2022-09-10T05:48:56.463Z,962.41
2022-09-10T05:49:28.259Z,962.21
2022-09-10T05:49:58.258Z,962.21
2022-09-10T05:50:29.269Z,962.21
2022-09-10T05:51:00.296Z,962.21
2022-09-10T05:51:31.216Z,962.21
2022-09-10T05:52:02.329Z,962.21
2022-09-10T05:52:33.247Z,962.21
2022-09-10T05:53:04.293Z,962.14
2022-09-10T05:53:35.240Z,962.14
2022-09-10T05:54:06.312Z,962.31
2022-09-10T05:54:38.182Z,962.31
2022-09-10T05:55:08.278Z,962.21
2022-09-10T05:55:39.267Z,962.21
2022-09-10T05:56:10.335Z,962.21
2022-09-10T05:56:41.239Z,962.21
2022-09-10T05:57:12.294Z,962.21
2022-09-10T05:57:43.259Z,962.21
2022-09-10T05:58:14.290Z,962.04
2022-09-10T05:58:45.274Z,962.04
2022-09-10T05:59:16.334Z,962.14
2022-09-10T05:59:48.241Z,962.14
2022-09-10T06:00:30.659Z,962.14
2022-09-10T06:00:49.289Z,962.14
2022-09-10T06:01:20.313Z,962.04
2022-09-10T06:01:51.263Z,962.04
2022-09-10T06:02:24.250Z,962.04
2022-09-10T06:02:53.501Z,962.04
2022-09-10T06:03:24.212Z,961.94
2022-09-10T06:03:55.286Z,961.94
2022-09-10T06:04:26.270Z,962.04
2022-09-10T06:04:58.338Z,962.04
2022-09-10T06:05:28.251Z,962.31
2022-09-10T06:05:59.253Z,962.31
2022-09-10T06:06:30.220Z,962.04
2022-09-10T06:07:01.345Z,962.04
2022-09-10T06:07:32.257Z,962.04
2022-09-10T06:08:07.883Z,962.04
2022-09-10T06:08:34.364Z,962.04
2022-09-10T06:09:05.306Z,962.14
2022-09-10T06:09:36.236Z,962.14
2022-09-10T06:10:08.453Z,962.04
2022-09-10T06:10:38.241Z,962.04
2022-09-10T06:11:09.478Z,961.94
2022-09-10T06:11:40.241Z,961.94
2022-09-10T06:12:11.373Z,962.04
2022-09-10T06:12:42.325Z,962.04
2022-09-10T06:13:13.353Z,962.04
2022-09-10T06:13:44.439Z,962.04
2022-09-10T06:14:15.357Z,961.94
2022-09-10T06:14:46.398Z,961.94
2022-09-10T06:15:30.690Z,962.04
2022-09-10T06:15:48.337Z,962.04
2022-09-10T06:16:19.463Z,962.21
2022-09-10T06:16:50.346Z,962.21
2022-09-10T06:17:21.308Z,962.14
2022-09-10T06:17:52.323Z,962.14
2022-09-10T06:18:23.423Z,962.04
2022-09-10T06:18:54.333Z,962.04
2022-09-10T06:19:25.337Z,962.04
2022-09-10T06:19:56.339Z,962.04
2022-09-10T06:20:28.375Z,962.21
2022-09-10T06:20:58.320Z,962.21
2022-09-10T06:21:29.323Z,962.14
2022-09-10T06:22:00.375Z,962.14
2022-09-10T06:22:31.266Z,962.14
2022-09-10T06:23:02.361Z,962.21
2022-09-10T06:23:33.246Z,962.21
2022-09-10T06:24:04.353Z,962.14
2022-09-10T06:24:35.225Z,962.14
2022-09-10T06:25:06.236Z,962.04
2022-09-10T06:25:38.215Z,962.04
2022-09-10T06:26:08.236Z,962.21
2022-09-10T06:26:39.280Z,962.21